Time;durP1;ratioP1;P1;durP2;ratioP2;P2;SDS_P1;SDS_P2;PMS_P1;PMS_P2;Temp;Humidity;BMP_temperature;BMP_pressure;BME280_temperature;BME280_humidity;BME280_pressure;Samples;Min_cycle;Max_cycle;Signal;HPM_P1;HPM_P2
2022/07/18 00:00:11;;;;;;;4.60;4.30;;;;;;;-141.48;100.00;69781.59;4973353;29;20033;-64
2022/07/18 00:02:41;;;;;;;3.55;3.38;;;;;;;-141.48;100.00;69781.59;4973406;29;20131;-64
2022/07/18 00:05:12;;;;;;;9.15;4.20;;;;;;;-141.48;100.00;69781.59;4972846;29;20038;-64
2022/07/18 00:07:42;;;;;;;4.53;4.32;;;;;;;-141.48;100.00;69781.59;4956968;29;20039;-64
2022/07/18 00:10:13;;;;;;;3.75;3.60;;;;;;;-141.48;100.00;69781.59;4973605;29;20083;-64
2022/07/18 00:12:44;;;;;;;4.47;4.07;;;;;;;-141.48;100.00;69781.59;4973330;29;20023;-64
2022/07/18 00:15:14;;;;;;;3.45;3.33;;;;;;;-141.48;100.00;69781.59;4973084;29;20106;-64
2022/07/18 00:17:45;;;;;;;4.07;3.70;;;;;;;-141.48;100.00;69781.59;4973070;29;20119;-64
2022/07/18 00:20:15;;;;;;;3.97;3.78;;;;;;;-141.48;100.00;69781.59;4956882;29;20121;-64
2022/07/18 00:22:46;;;;;;;3.88;3.67;;;;;;;-141.48;100.00;69781.59;4973045;29;20026;-64
2022/07/18 00:25:16;;;;;;;4.22;4.03;;;;;;;-141.48;100.00;69781.59;4972482;29;20031;-64
2022/07/18 00:27:46;;;;;;;2.75;2.65;;;;;;;-141.48;100.00;69781.59;4972805;29;20042;-64
2022/07/18 00:30:17;;;;;;;4.63;4.32;;;;;;;-141.48;100.00;69781.59;4972602;29;20046;-64
2022/07/18 00:32:47;;;;;;;3.35;3.25;;;;;;;-141.48;100.00;69781.59;4972778;29;20026;-64
2022/07/18 00:35:18;;;;;;;5.55;3.83;;;;;;;-141.48;100.00;69781.59;4972468;29;20123;-64
2022/07/18 00:37:48;;;;;;;3.47;3.38;;;;;;;-141.48;100.00;69781.59;4972568;29;20448;-64
2022/07/18 00:40:18;;;;;;;6.47;3.75;;;;;;;-141.48;100.00;69781.59;4972740;29;20045;-64
2022/07/18 00:42:49;;;;;;;6.18;4.10;;;;;;;-141.48;100.00;69781.59;4972278;29;20022;-64
2022/07/18 00:45:20;;;;;;;4.00;3.80;;;;;;;-141.48;100.00;69781.59;4972249;29;20526;-64
2022/07/18 00:47:51;;;;;;;3.85;3.55;;;;;;;-141.48;100.00;69781.59;4972793;29;20038;-64
2022/07/18 00:50:22;;;;;;;5.18;4.30;;;;;;;-141.48;100.00;69781.59;4972540;29;20035;-64
2022/07/18 00:52:53;;;;;;;4.53;4.22;;;;;;;-141.48;100.00;69781.59;4971319;29;20969;-64
2022/07/18 00:55:24;;;;;;;4.30;3.97;;;;;;;-141.48;100.00;69781.59;4955627;29;20110;-64
2022/07/18 00:57:55;;;;;;;5.68;4.45;;;;;;;-141.48;100.00;69781.59;4972619;29;20060;-64
2022/07/18 01:03:15;;;;;;;4.22;3.88;;;;;;;-141.48;100.00;69781.59;4972611;29;20072;-64
2022/07/18 01:05:45;;;;;;;4.13;3.92;;;;;;;-141.48;100.00;69781.59;4971760;29;20113;-64
2022/07/18 01:08:16;;;;;;;4.55;4.25;;;;;;;-141.48;100.00;69781.59;4972526;29;20034;-64
2022/07/18 01:10:46;;;;;;;5.55;4.93;;;;;;;-141.48;100.00;69781.59;4972126;29;20043;-64
2022/07/18 01:13:17;;;;;;;4.03;3.72;;;;;;;-141.48;100.00;69781.59;4971891;29;20117;-64
2022/07/18 01:15:48;;;;;;;4.20;3.90;;;;;;;-141.48;100.00;69781.59;4971753;29;20506;-64
2022/07/18 01:18:18;;;;;;;4.00;3.80;;;;;;;-141.48;100.00;69781.59;4972135;29;20034;-65
2022/07/18 01:20:49;;;;;;;5.10;4.70;;;;;;;-141.48;100.00;69781.59;4971916;29;20046;-64
2022/07/18 01:23:19;;;;;;;5.43;5.13;;;;;;;-141.48;100.00;69781.59;4972073;29;20046;-64
2022/07/18 01:25:50;;;;;;;5.43;4.57;;;;;;;-141.48;100.00;69781.59;4971721;29;20408;-64
2022/07/18 01:28:20;;;;;;;4.95;3.90;;;;;;;-141.48;100.00;69781.59;4971861;29;20476;-61
2022/07/18 01:30:51;;;;;;;4.68;4.38;;;;;;;-141.48;100.00;69781.59;4971607;29;20488;-62
2022/07/18 01:33:21;;;;;;;4.13;3.83;;;;;;;-141.48;100.00;69781.59;4971974;29;20030;-62
2022/07/18 01:35:52;;;;;;;8.77;4.35;;;;;;;-141.48;100.00;69781.59;4971676;29;20026;-63
2022/07/18 01:38:22;;;;;;;4.63;3.83;;;;;;;-141.48;100.00;69781.59;4955529;29;20035;-63
2022/07/18 01:40:53;;;;;;;4.07;3.95;;;;;;;-141.48;100.00;69781.59;4971584;29;20034;-63
2022/07/18 01:43:24;;;;;;;4.25;3.70;;;;;;;-141.48;100.00;69781.59;4971117;29;20130;-63
2022/07/18 01:45:55;;;;;;;5.45;3.72;;;;;;;-141.48;100.00;69781.59;4971220;29;20037;-63
2022/07/18 01:48:25;;;;;;;4.35;3.95;;;;;;;-141.48;100.00;69781.59;4971497;29;20031;-63
2022/07/18 01:50:56;;;;;;;4.82;4.53;;;;;;;-141.48;100.00;69781.59;4954992;29;20026;-63
2022/07/18 01:53:27;;;;;;;3.45;3.25;;;;;;;-141.48;100.00;69781.59;4970974;29;20096;-63
2022/07/18 01:55:58;;;;;;;4.35;4.18;;;;;;;-141.48;100.00;69781.59;4971112;29;20023;-63
2022/07/18 01:58:28;;;;;;;4.38;4.07;;;;;;;-141.48;100.00;69781.59;4971221;29;20031;-63
2022/07/18 02:00:58;;;;;;;9.00;5.07;;;;;;;-141.48;100.00;69781.59;4971380;29;20453;-63
2022/07/18 02:03:29;;;;;;;6.75;4.38;;;;;;;-141.48;100.00;69781.59;4954185;29;20110;-63
2022/07/18 02:05:59;;;;;;;7.25;4.43;;;;;;;-141.48;100.00;69781.59;4971527;29;20034;-63
2022/07/18 02:08:30;;;;;;;4.35;4.05;;;;;;;-141.48;100.00;69781.59;4954846;29;20088;-63
2022/07/18 02:11:00;;;;;;;4.90;4.70;;;;;;;-141.48;100.00;69781.59;4954748;29;20477;-63
2022/07/18 02:13:30;;;;;;;5.80;5.05;;;;;;;-141.48;100.00;69781.59;4970640;29;20499;-63
2022/07/18 02:16:01;;;;;;;5.47;4.75;;;;;;;-141.48;100.00;69781.59;4970800;29;20091;-63
2022/07/18 02:18:33;;;;;;;4.68;4.47;;;;;;;-141.48;100.00;69781.59;4971406;29;20033;-63
2022/07/18 02:21:03;;;;;;;4.40;4.18;;;;;;;-141.48;100.00;69781.59;4955064;29;20090;-63
2022/07/18 02:23:34;;;;;;;4.72;4.53;;;;;;;-141.48;100.00;69781.59;4970516;29;20163;-63
2022/07/18 02:26:06;;;;;;;5.30;4.97;;;;;;;-141.48;100.00;69781.59;4970826;29;20035;-63
2022/07/18 02:28:37;;;;;;;4.75;4.45;;;;;;;-141.48;100.00;69781.59;4969730;29;20035;-63
2022/07/18 02:31:08;;;;;;;5.25;4.90;;;;;;;-141.48;100.00;69781.59;4970588;29;20038;-63
2022/07/18 02:33:38;;;;;;;5.32;5.03;;;;;;;-141.48;100.00;69781.59;4970541;29;20066;-63
2022/07/18 02:36:09;;;;;;;5.05;4.65;;;;;;;-141.48;100.00;69781.59;4970394;29;20027;-63
2022/07/18 02:38:39;;;;;;;5.30;4.40;;;;;;;-141.48;100.00;69781.59;4970572;29;20035;-63
2022/07/18 02:41:10;;;;;;;6.00;5.50;;;;;;;-141.48;100.00;69781.59;4970759;29;20365;-64
2022/07/18 02:43:40;;;;;;;4.68;4.30;;;;;;;-141.48;100.00;69781.59;4970245;29;20302;-63
2022/07/18 02:46:10;;;;;;;5.20;4.90;;;;;;;-141.48;100.00;69781.59;4970514;29;20407;-63
2022/07/18 02:48:41;;;;;;;4.82;4.40;;;;;;;-141.48;100.00;69781.59;4970199;29;20067;-64
2022/07/18 02:51:11;;;;;;;4.75;4.45;;;;;;;-141.48;100.00;69781.59;4970474;29;20031;-63
2022/07/18 02:53:42;;;;;;;4.40;4.20;;;;;;;-141.48;100.00;69781.59;4969980;29;20075;-63
2022/07/18 02:56:12;;;;;;;5.07;4.68;;;;;;;-141.48;100.00;69781.59;4954047;29;20027;-63
2022/07/18 02:58:43;;;;;;;4.80;4.50;;;;;;;-141.48;100.00;69781.59;4970385;29;20038;-63
2022/07/18 03:01:13;;;;;;;5.55;5.20;;;;;;;-141.48;100.00;69781.59;4970164;29;20051;-63
2022/07/18 03:03:44;;;;;;;3.95;3.75;;;;;;;-141.48;100.00;69781.59;4953580;29;20503;-63
2022/07/18 03:06:14;;;;;;;4.75;4.47;;;;;;;-141.48;100.00;69781.59;4970358;29;20039;-63
2022/07/18 03:08:45;;;;;;;6.20;4.70;;;;;;;-141.48;100.00;69781.59;4970269;29;20031;-63
2022/07/18 03:11:15;;;;;;;4.85;4.65;;;;;;;-141.48;100.00;69781.59;4969952;29;20033;-63
2022/07/18 03:13:45;;;;;;;6.10;5.57;;;;;;;-141.48;100.00;69781.59;4969738;29;20035;-63
2022/07/18 03:16:16;;;;;;;5.50;5.10;;;;;;;-141.48;100.00;69781.59;4953088;29;20035;-64
2022/07/18 03:18:46;;;;;;;6.68;4.35;;;;;;;-141.48;100.00;69781.59;4969810;29;20030;-63
2022/07/18 03:21:17;;;;;;;5.50;5.20;;;;;;;-141.48;100.00;69781.59;4969874;29;20023;-63
2022/07/18 03:23:47;;;;;;;4.25;3.95;;;;;;;-141.48;100.00;69781.59;4969542;29;20088;-63
2022/07/18 03:26:18;;;;;;;5.18;4.78;;;;;;;-141.48;100.00;69781.59;4969658;29;20035;-63
2022/07/18 03:28:48;;;;;;;5.85;4.95;;;;;;;-141.48;100.00;69781.59;4953542;29;20144;-63
2022/07/18 03:31:19;;;;;;;4.88;4.40;;;;;;;-141.48;100.00;69781.59;4953400;29;20403;-63
2022/07/18 03:33:49;;;;;;;7.00;4.65;;;;;;;-141.48;100.00;69781.59;4969648;29;20054;-64
2022/07/18 03:36:20;;;;;;;5.63;4.57;;;;;;;-141.48;100.00;69781.59;4969846;29;20030;-62
2022/07/18 03:38:51;;;;;;;9.75;5.07;;;;;;;-141.48;100.00;69781.59;4969754;29;20374;-62
2022/07/18 03:41:21;;;;;;;5.15;4.60;;;;;;;-141.48;100.00;69781.59;4953661;29;20033;-63
2022/07/18 03:43:52;;;;;;;5.70;5.25;;;;;;;-141.48;100.00;69781.59;4969555;29;20515;-62
2022/07/18 03:46:22;;;;;;;9.88;5.18;;;;;;;-141.48;100.00;69781.59;4969591;29;20121;-62
2022/07/18 03:48:53;;;;;;;4.82;4.55;;;;;;;-141.48;100.00;69781.59;4969938;29;20089;-62
2022/07/18 03:51:23;;;;;;;11.73;5.63;;;;;;;-141.48;100.00;69781.59;4969480;29;20419;-62
2022/07/18 03:53:54;;;;;;;6.03;5.53;;;;;;;-141.48;100.00;69781.59;4969315;29;20400;-63
2022/07/18 03:56:24;;;;;;;13.23;5.03;;;;;;;-141.48;100.00;69781.59;4970037;29;20023;-62
2022/07/18 03:58:54;;;;;;;5.70;5.25;;;;;;;-141.48;100.00;69781.59;4969861;29;20541;-63
2022/07/18 04:01:25;;;;;;;4.50;3.90;;;;;;;-141.48;100.00;69781.59;4969735;29;20058;-63
2022/07/18 04:03:55;;;;;;;9.15;5.10;;;;;;;-141.48;100.00;69781.59;4969027;29;20092;-62
2022/07/18 04:06:26;;;;;;;5.10;4.68;;;;;;;-141.48;100.00;69781.59;4969503;29;20527;-62
2022/07/18 04:08:56;;;;;;;5.78;5.10;;;;;;;-141.48;100.00;69781.59;4969605;29;20454;-62
2022/07/18 04:11:26;;;;;;;5.22;4.93;;;;;;;-141.48;100.00;69781.59;4969543;29;20102;-62
2022/07/18 04:13:57;;;;;;;7.60;5.72;;;;;;;-141.48;100.00;69781.59;4969297;29;20027;-62
2022/07/18 04:16:28;;;;;;;6.35;5.18;;;;;;;-141.48;100.00;69781.59;4969090;29;20412;-62
2022/07/18 04:18:58;;;;;;;4.53;4.25;;;;;;;-141.48;100.00;69781.59;4953166;29;20488;-62
2022/07/18 04:21:29;;;;;;;7.68;5.97;;;;;;;-141.48;100.00;69781.59;4953190;29;20031;-63
2022/07/18 04:23:59;;;;;;;16.25;6.72;;;;;;;-141.48;100.00;69781.59;4952867;29;20047;-63
2022/07/18 04:26:29;;;;;;;5.55;5.10;;;;;;;-141.48;100.00;69781.59;4970047;29;20039;-63
2022/07/18 04:29:00;;;;;;;6.25;5.75;;;;;;;-141.48;100.00;69781.59;4972622;29;20113;-63
2022/07/18 04:31:30;;;;;;;6.32;5.72;;;;;;;-141.48;100.00;69781.59;4972725;29;20130;-63
2022/07/18 04:34:01;;;;;;;5.97;5.38;;;;;;;-141.48;100.00;69781.59;4972732;29;20403;-63
2022/07/18 04:36:31;;;;;;;5.75;5.45;;;;;;;-141.48;100.00;69781.59;4972599;29;20027;-64
2022/07/18 04:39:02;;;;;;;5.18;4.63;;;;;;;-141.48;100.00;69781.59;4972685;29;20114;-62
2022/07/18 04:41:32;;;;;;;5.10;4.68;;;;;;;-141.48;100.00;69781.59;4956353;29;20023;-63
2022/07/18 04:44:03;;;;;;;5.50;5.13;;;;;;;-141.48;100.00;69781.59;4972276;29;20377;-64
2022/07/18 04:46:33;;;;;;;6.30;5.90;;;;;;;-141.48;100.00;69781.59;4986012;24;20138;-63
2022/07/18 04:49:03;;;;;;;5.15;4.65;;;;;;;-141.48;100.00;69781.59;4971589;29;20025;-63
2022/07/18 04:51:34;;;;;;;5.25;4.95;;;;;;;-141.48;100.00;69781.59;4972811;29;20027;-63
2022/07/18 04:54:04;;;;;;;6.45;5.78;;;;;;;-141.48;100.00;69781.59;4972358;29;20091;-63
2022/07/18 04:56:35;;;;;;;9.68;5.95;;;;;;;-141.48;100.00;69781.59;4972421;29;20031;-63
2022/07/18 04:59:05;;;;;;;5.35;4.95;;;;;;;-141.48;100.00;69781.59;4972111;29;20026;-63
2022/07/18 05:01:36;;;;;;;9.73;5.18;;;;;;;-141.48;100.00;69781.59;4970726;29;20502;-63
2022/07/18 05:04:06;;;;;;;10.55;6.82;;;;;;;-141.48;100.00;69781.59;4972107;29;20035;-63
2022/07/18 05:06:36;;;;;;;6.38;5.97;;;;;;;-141.48;100.00;69781.59;4972287;29;20326;-63
2022/07/18 05:09:07;;;;;;;5.72;5.10;;;;;;;-141.48;100.00;69781.59;4972251;29;20031;-63
2022/07/18 05:11:37;;;;;;;7.25;5.93;;;;;;;-141.48;100.00;69781.59;4971940;29;20031;-63
2022/07/18 05:14:08;;;;;;;5.25;4.82;;;;;;;-141.48;100.00;69781.59;4955510;29;20042;-63
2022/07/18 05:16:38;;;;;;;8.38;4.78;;;;;;;-141.48;100.00;69781.59;4972213;29;20488;-63
2022/07/18 05:19:09;;;;;;;6.50;5.43;;;;;;;-141.48;100.00;69781.59;4972215;29;20027;-63
2022/07/18 05:21:39;;;;;;;5.25;4.95;;;;;;;-141.48;100.00;69781.59;4972034;29;20027;-63
2022/07/18 05:24:10;;;;;;;6.00;5.60;;;;;;;-141.48;100.00;69781.59;4971584;29;20031;-63
2022/07/18 05:26:41;;;;;;;5.97;5.68;;;;;;;-141.48;100.00;69781.59;4971932;29;20026;-63
2022/07/18 05:29:12;;;;;;;5.65;4.60;;;;;;;-141.48;100.00;69781.59;4971934;29;20046;-63
2022/07/18 05:31:43;;;;;;;4.35;4.15;;;;;;;-141.48;100.00;69781.59;4971781;29;20035;-63
2022/07/18 05:34:13;;;;;;;6.25;5.68;;;;;;;-141.48;100.00;69781.59;4970080;29;20031;-63
2022/07/18 05:36:44;;;;;;;5.93;5.07;;;;;;;-141.48;100.00;69781.59;4971869;29;20035;-63
2022/07/18 05:39:14;;;;;;;5.13;4.80;;;;;;;-141.48;100.00;69781.59;4971292;29;20380;-62
2022/07/18 05:41:45;;;;;;;11.77;6.00;;;;;;;-141.48;100.00;69781.59;4971723;29;20092;-63
2022/07/18 05:44:15;;;;;;;7.72;5.55;;;;;;;-141.48;100.00;69781.59;4971206;29;20030;-63
2022/07/18 05:46:47;;;;;;;5.57;5.28;;;;;;;-141.48;100.00;69781.59;4971165;29;20520;-64
2022/07/18 05:49:18;;;;;;;5.75;5.45;;;;;;;-141.48;100.00;69781.59;4971319;29;20030;-63
2022/07/18 05:51:48;;;;;;;5.35;4.72;;;;;;;-141.48;100.00;69781.59;4971424;29;20034;-63
2022/07/18 05:54:19;;;;;;;6.43;5.43;;;;;;;-141.48;100.00;69781.59;4971061;29;20484;-63
2022/07/18 05:56:51;;;;;;;9.27;4.93;;;;;;;-141.48;100.00;69781.59;4971321;29;20027;-64
2022/07/18 05:59:21;;;;;;;6.20;5.15;;;;;;;-141.48;100.00;69781.59;4971111;29;20035;-62
2022/07/18 06:01:52;;;;;;;4.53;4.32;;;;;;;-141.48;100.00;69781.59;4971549;29;20072;-62
2022/07/18 06:04:22;;;;;;;4.95;4.63;;;;;;;-141.48;100.00;69781.59;4970853;29;20022;-61
2022/07/18 06:06:53;;;;;;;6.55;5.82;;;;;;;-141.48;100.00;69781.59;4971387;29;20030;-62
2022/07/18 06:09:23;;;;;;;4.82;4.55;;;;;;;-141.48;100.00;69781.59;4971427;29;20039;-62
2022/07/18 06:11:54;;;;;;;15.95;10.32;;;;;;;-141.48;100.00;69781.59;4971069;29;20114;-62
2022/07/18 06:14:24;;;;;;;6.28;5.72;;;;;;;-141.48;100.00;69781.59;4970954;29;20031;-66
2022/07/18 06:16:56;;;;;;;12.13;8.23;;;;;;;-141.48;100.00;69781.59;4970924;29;20041;-63
2022/07/18 06:19:27;;;;;;;5.72;5.32;;;;;;;-141.48;100.00;69781.59;4971024;29;20492;-63
2022/07/18 06:21:59;;;;;;;8.05;6.32;;;;;;;-141.48;100.00;69781.59;4971077;29;20172;-63
2022/07/18 06:24:29;;;;;;;8.93;7.55;;;;;;;-141.48;100.00;69781.59;4969301;29;20034;-65
2022/07/18 06:27:01;;;;;;;12.93;7.28;;;;;;;-141.48;100.00;69781.59;4970983;29;20087;-63
2022/07/18 06:29:32;;;;;;;6.43;5.80;;;;;;;-141.48;100.00;69781.59;4969998;29;20038;-63
2022/07/18 06:32:02;;;;;;;7.15;6.35;;;;;;;-141.48;100.00;69781.59;4970854;29;20037;-62
2022/07/18 06:34:33;;;;;;;6.15;4.70;;;;;;;-141.48;100.00;69781.59;4970600;29;20046;-62
2022/07/18 06:37:03;;;;;;;9.38;5.47;;;;;;;-141.48;100.00;69781.59;4970675;29;20037;-62
2022/07/18 06:39:34;;;;;;;5.18;4.78;;;;;;;-141.48;100.00;69781.59;4970608;29;20079;-63
2022/07/18 06:42:04;;;;;;;4.50;4.07;;;;;;;-141.48;100.00;69781.59;4970511;29;20056;-63
2022/07/18 06:44:34;;;;;;;8.88;3.28;;;;;;;-141.48;100.00;69781.59;4968880;29;20095;-63
2022/07/18 06:47:05;;;;;;;6.70;4.38;;;;;;;-141.48;100.00;69781.59;4970265;29;20027;-62
2022/07/18 06:49:35;;;;;;;4.07;3.78;;;;;;;-141.48;100.00;69781.59;4969228;29;20027;-65
2022/07/18 06:52:06;;;;;;;4.03;3.83;;;;;;;-141.48;100.00;69781.59;4970514;29;20066;-64
2022/07/18 06:54:38;;;;;;;3.90;3.70;;;;;;;-141.48;100.00;69781.59;4970134;29;20035;-64
2022/07/18 06:57:09;;;;;;;3.92;3.60;;;;;;;-141.48;100.00;69781.59;4970335;29;20126;-64
2022/07/18 06:59:39;;;;;;;5.32;4.43;;;;;;;-141.48;100.00;69781.59;4970210;29;20114;-64
2022/07/18 07:02:10;;;;;;;7.05;3.25;;;;;;;-141.48;100.00;69781.59;4970267;29;20449;-63
2022/07/18 07:04:40;;;;;;;4.60;4.30;;;;;;;-141.48;100.00;69781.59;4969715;29;20030;-67
2022/07/18 07:07:11;;;;;;;3.45;3.25;;;;;;;-141.48;100.00;69781.59;4970016;29;20110;-66
2022/07/18 07:09:41;;;;;;;4.28;3.97;;;;;;;-141.48;100.00;69781.59;4968821;29;20081;-64
2022/07/18 07:12:11;;;;;;;6.93;4.13;;;;;;;-141.48;100.00;69781.59;4968731;29;20022;-64
2022/07/18 07:14:42;;;;;;;3.63;3.33;;;;;;;-141.48;100.00;69781.59;4969741;29;20038;-63
2022/07/18 07:17:12;;;;;;;4.75;3.95;;;;;;;-141.48;100.00;69781.59;4970427;29;20094;-63
2022/07/18 07:19:43;;;;;;;13.32;3.65;;;;;;;-141.48;100.00;69781.59;4953622;29;20043;-63
2022/07/18 07:22:13;;;;;;;4.43;4.13;;;;;;;-141.48;100.00;69781.59;4968582;29;20102;-63
2022/07/18 07:24:44;;;;;;;4.03;3.30;;;;;;;-141.48;100.00;69781.59;4968082;29;20035;-64
2022/07/18 07:27:14;;;;;;;5.93;3.35;;;;;;;-141.48;100.00;69781.59;4969782;29;20031;-64
2022/07/18 07:29:44;;;;;;;4.82;3.22;;;;;;;-141.48;100.00;69781.59;4969859;29;20026;-64
2022/07/18 07:32:15;;;;;;;4.18;3.92;;;;;;;-141.48;100.00;69781.59;4969834;29;20042;-64
2022/07/18 07:34:45;;;;;;;5.63;3.53;;;;;;;-141.48;100.00;69781.59;4968160;29;20484;-64
2022/07/18 07:37:16;;;;;;;3.78;3.20;;;;;;;-141.48;100.00;69781.59;4968256;29;20038;-64
2022/07/18 07:39:47;;;;;;;3.80;3.33;;;;;;;-141.48;100.00;69781.59;4969678;29;20168;-63
2022/07/18 07:42:17;;;;;;;3.38;3.17;;;;;;;-141.48;100.00;69781.59;4968379;29;20019;-64
2022/07/18 07:44:47;;;;;;;3.85;3.65;;;;;;;-141.48;100.00;69781.59;4969411;29;20503;-63
2022/07/18 07:47:18;;;;;;;4.88;4.45;;;;;;;-141.48;100.00;69781.59;4969775;29;20039;-63
2022/07/18 07:49:48;;;;;;;3.45;3.22;;;;;;;-141.48;100.00;69781.59;4969514;29;20396;-64
2022/07/18 07:52:20;;;;;;;3.10;2.92;;;;;;;-141.48;100.00;69781.59;4969581;29;20027;-63
2022/07/18 07:54:51;;;;;;;2.78;2.63;;;;;;;-141.48;100.00;69781.59;4968214;29;20035;-63
2022/07/18 07:57:21;;;;;;;4.05;3.42;;;;;;;-141.48;100.00;69781.59;4969646;29;20515;-64
2022/07/18 07:59:52;;;;;;;4.13;3.83;;;;;;;-141.48;100.00;69781.59;4969923;29;20034;-63
2022/07/18 08:02:22;;;;;;;3.17;3.08;;;;;;;-141.48;100.00;69781.59;4971480;29;20039;-63
2022/07/18 08:04:53;;;;;;;4.82;3.80;;;;;;;-141.48;100.00;69781.59;4973473;29;20045;-64
2022/07/18 08:07:24;;;;;;;3.65;3.45;;;;;;;-141.48;100.00;69781.59;4973062;29;20031;-63
2022/07/18 08:09:54;;;;;;;4.03;3.80;;;;;;;-141.48;100.00;69781.59;4973222;29;20027;-66
2022/07/18 08:12:25;;;;;;;2.67;2.47;;;;;;;-141.48;100.00;69781.59;4972063;29;20031;-63
2022/07/18 08:14:55;;;;;;;4.07;3.33;;;;;;;-141.48;100.00;69781.59;4971601;29;20039;-63
2022/07/18 08:17:25;;;;;;;3.38;3.17;;;;;;;-141.48;100.00;69781.59;4973150;29;20038;-65
2022/07/18 08:19:59;;;;;;;3.05;2.50;;;;;;;-141.48;100.00;69781.59;4972845;29;20106;-63
2022/07/18 08:22:29;;;;;;;2.65;2.50;;;;;;;-141.48;100.00;69781.59;4973079;29;20046;-63
2022/07/18 08:25:00;;;;;;;2.83;2.72;;;;;;;-141.48;100.00;69781.59;4972413;29;20500;-63
2022/07/18 08:27:31;;;;;;;4.10;3.90;;;;;;;-141.48;100.00;69781.59;4972843;29;20095;-63
2022/07/18 08:30:01;;;;;;;9.18;3.85;;;;;;;-141.48;100.00;69781.59;4972747;29;20448;-62
2022/07/18 08:32:33;;;;;;;2.60;2.50;;;;;;;-141.48;100.00;69781.59;4972926;29;20557;-63
2022/07/18 08:35:04;;;;;;;4.10;3.65;;;;;;;-141.48;100.00;69781.59;4972575;29;20053;-63
2022/07/18 08:37:35;;;;;;;3.83;3.65;;;;;;;-141.48;100.00;69781.59;4972862;29;20034;-63
2022/07/18 08:40:06;;;;;;;2.83;2.63;;;;;;;-141.48;100.00;69781.59;4972642;29;20034;-64
2022/07/18 08:42:37;;;;;;;3.10;2.90;;;;;;;-141.48;100.00;69781.59;4971375;29;20049;-64
2022/07/18 08:45:08;;;;;;;4.45;2.40;;;;;;;-141.48;100.00;69781.59;4970947;29;20042;-64
2022/07/18 08:47:38;;;;;;;3.47;3.05;;;;;;;-141.48;100.00;69781.59;4972386;29;20084;-64
2022/07/18 08:50:09;;;;;;;3.00;2.80;;;;;;;-141.48;100.00;69781.59;4972922;29;20031;-63
2022/07/18 08:52:40;;;;;;;2.92;2.83;;;;;;;-141.48;100.00;69781.59;4972702;29;20038;-62
2022/07/18 08:55:11;;;;;;;6.63;3.35;;;;;;;-141.48;100.00;69781.59;4972143;29;20033;-62
2022/07/18 08:57:41;;;;;;;5.60;3.83;;;;;;;-141.48;100.00;69781.59;4972452;29;20565;-63
2022/07/18 09:00:12;;;;;;;3.85;3.42;;;;;;;-141.48;100.00;69781.59;4956058;29;20027;-64
2022/07/18 09:02:43;;;;;;;3.17;2.97;;;;;;;-141.48;100.00;69781.59;4972557;29;20030;-64
2022/07/18 09:05:19;;;;;;;2.97;2.67;;;;;;;-141.48;100.00;69781.59;4971921;29;20069;-64
2022/07/18 09:07:49;;;;;;;7.22;4.18;;;;;;;-141.48;100.00;69781.59;4972417;29;20034;-63
2022/07/18 09:10:20;;;;;;;3.55;3.00;;;;;;;-141.48;100.00;69781.59;4972318;29;20095;-64
2022/07/18 09:12:57;;;;;;;3.35;3.05;;;;;;;-141.48;100.00;69781.59;4971508;29;20054;-65
2022/07/18 09:15:27;;;;;;;3.05;2.95;;;;;;;-141.48;100.00;69781.59;4971870;29;20026;-65
2022/07/18 09:17:58;;;;;;;3.15;2.95;;;;;;;-141.48;100.00;69781.59;4972304;29;20106;-65
2022/07/18 09:20:29;;;;;;;2.67;2.58;;;;;;;-141.48;100.00;69781.59;4972209;29;20564;-64
2022/07/18 09:23:13;;;;;;;5.95;2.80;;;;;;;-141.48;100.00;69781.59;4970653;29;20113;-65
2022/07/18 09:25:46;;;;;;;3.15;2.85;;;;;;;-141.48;100.00;69781.59;4972024;29;20034;-65
2022/07/18 09:28:18;;;;;;;3.40;3.20;;;;;;;-141.48;100.00;69781.59;4970823;29;20377;-65
2022/07/18 09:30:48;;;;;;;4.78;2.88;;;;;;;-141.48;100.00;69781.59;4972282;29;20404;-65
2022/07/18 09:33:21;;;;;;;3.05;2.85;;;;;;;-141.48;100.00;69781.59;4972034;29;20035;-66
2022/07/18 09:35:54;;;;;;;5.10;3.75;;;;;;;-141.48;100.00;69781.59;4970434;29;20026;-64
2022/07/18 09:38:29;;;;;;;3.55;2.22;;;;;;;-141.48;100.00;69781.59;4955178;29;20087;-65
2022/07/18 09:40:59;;;;;;;2.35;2.08;;;;;;;-141.48;100.00;69781.59;4970606;29;20442;-65
2022/07/18 09:43:37;;;;;;;3.88;3.47;;;;;;;-141.48;100.00;69781.59;4971260;29;20060;-65
2022/07/18 09:46:08;;;;;;;4.50;3.03;;;;;;;-141.48;100.00;69781.59;4970106;29;20038;-66
2022/07/18 09:48:38;;;;;;;3.28;2.97;;;;;;;-141.48;100.00;69781.59;4970262;29;20038;-65
2022/07/18 09:51:09;;;;;;;3.35;2.90;;;;;;;-141.48;100.00;69781.59;4971385;29;20111;-65
2022/07/18 09:53:41;;;;;;;2.17;1.73;;;;;;;-141.48;100.00;69781.59;4970980;29;20027;-65
2022/07/18 09:56:22;;;;;;;3.08;2.88;;;;;;;-141.48;100.00;69781.59;4969796;29;20557;-65
2022/07/18 09:58:54;;;;;;;2.60;2.50;;;;;;;-141.48;100.00;69781.59;4971361;29;20031;-65
2022/07/18 10:01:25;;;;;;;2.72;2.63;;;;;;;-141.48;100.00;69781.59;4971385;29;20527;-65
2022/07/18 10:03:55;;;;;;;2.58;2.38;;;;;;;-141.48;100.00;69781.59;4970791;29;20057;-65
2022/07/18 10:06:26;;;;;;;2.65;2.55;;;;;;;-141.48;100.00;69781.59;4971380;29;20031;-65
2022/07/18 10:08:57;;;;;;;3.35;2.72;;;;;;;-141.48;100.00;69781.59;4971043;29;20464;-65
2022/07/18 10:11:28;;;;;;;2.40;2.30;;;;;;;-141.48;100.00;69781.59;4955108;29;20054;-65
2022/07/18 10:13:59;;;;;;;2.65;2.45;;;;;;;-141.48;100.00;69781.59;4970761;29;20023;-65
2022/07/18 10:16:29;;;;;;;1.95;1.85;;;;;;;-141.48;100.00;69781.59;4971034;29;20031;-67
2022/07/18 10:19:00;;;;;;;9.25;2.20;;;;;;;-141.48;100.00;69781.59;4971300;29;20381;-64
2022/07/18 10:21:31;;;;;;;2.55;2.45;;;;;;;-141.48;100.00;69781.59;4970612;29;20030;-66
2022/07/18 10:24:02;;;;;;;2.60;2.40;;;;;;;-141.48;100.00;69781.59;4970341;29;20035;-66
2022/07/18 10:26:32;;;;;;;1.98;1.83;;;;;;;-141.48;100.00;69781.59;4969354;29;20084;-65
2022/07/18 10:29:02;;;;;;;2.33;2.10;;;;;;;-141.48;100.00;69781.59;4970878;29;20453;-65
2022/07/18 10:31:38;;;;;;;3.90;2.35;;;;;;;-141.48;100.00;69781.59;4954425;29;20038;-65
2022/07/18 10:34:08;;;;;;;7.05;2.42;;;;;;;-141.48;100.00;69781.59;4969286;29;20121;-65
2022/07/18 10:36:49;;;;;;;2.40;2.28;;;;;;;-141.48;100.00;69781.59;4969391;29;20121;-65
2022/07/18 10:39:31;;;;;;;1.83;1.83;;;;;;;-141.48;100.00;69781.59;4969390;29;20125;-65
2022/07/18 10:42:02;;;;;;;2.05;1.95;;;;;;;-141.48;100.00;69781.59;4970445;29;20031;-65
2022/07/18 10:47:20;;;;;;;2.55;2.38;;;;;;;-141.48;100.00;69781.59;4976018;29;20062;-64
2022/07/18 10:49:52;;;;;;;2.10;2.00;;;;;;;-141.48;100.00;69781.59;4970257;29;20053;-64
2022/07/18 10:52:28;;;;;;;2.65;2.55;;;;;;;-141.48;100.00;69781.59;4970323;29;20035;-65
2022/07/18 10:55:01;;;;;;;1.80;1.80;;;;;;;-141.48;100.00;69781.59;4969708;29;20035;-65
2022/07/18 10:57:35;;;;;;;3.85;1.95;;;;;;;-141.48;100.00;69781.59;4970181;29;20038;-64
2022/07/18 11:00:08;;;;;;;2.72;2.63;;;;;;;-141.48;100.00;69781.59;4938761;29;20125;-65
2022/07/18 11:02:48;;;;;;;8.57;2.90;;;;;;;-141.48;100.00;69781.59;4970229;29;20026;-65
2022/07/18 11:05:27;;;;;;;2.38;1.95;;;;;;;-141.48;100.00;69781.59;4969690;29;20038;-65
2022/07/18 11:07:57;;;;;;;7.38;2.58;;;;;;;-141.48;100.00;69781.59;4969912;29;20398;-63
2022/07/18 11:10:53;;;;;;;2.05;1.95;;;;;;;-141.48;100.00;69781.59;4953665;29;20027;-64
2022/07/18 11:13:32;;;;;;;6.88;2.33;;;;;;;-141.48;100.00;69781.59;4964337;29;20089;-62
2022/07/18 11:16:11;;;;;;;1.73;1.67;;;;;;;-141.48;100.00;69781.59;4969543;29;20035;-65
2022/07/18 11:18:44;;;;;;;2.67;2.40;;;;;;;-141.48;100.00;69781.59;4969839;29;20030;-65
2022/07/18 11:21:25;;;;;;;2.30;2.20;;;;;;;-141.48;100.00;69781.59;4953607;29;20063;-64
2022/07/18 11:24:03;;;;;;;2.63;2.42;;;;;;;-141.48;100.00;69781.59;4969510;29;20035;-66
2022/07/18 11:26:42;;;;;;;2.20;2.10;;;;;;;-141.48;100.00;69781.59;4969810;29;20058;-66
2022/07/18 11:29:14;;;;;;;;;;;;;;;-141.48;100.00;69781.59;4970397;29;20031;-66
2022/07/18 11:31:56;;;;;;;2.42;1.85;;;;;;;-141.48;100.00;69781.59;4969896;29;19925;-66